Terminal Aerodrome Forecast
Issued by NWS

Home | Current Version | Previous Version | Text Only | Print | Product List | Glossary On
Versions: 1 2 3 4 5 6 7 8 9 10 11 12 13 14 15 16 17 18 19 20 21 22
964
FTUS43 KDVN 120757 AAA
TAFCID
TAF AMD
KCID 120757Z 1208/1306 27004KT P6SM OVC045
     FM121400 30013KT P6SM BKN050
     FM121700 30020G30KT P6SM BKN035
     FM130100 33015KT P6SM BKN200=

USA.gov is the U.S. government's official web portal to all federal, state and local government web resources and services.